Time;durP1;ratioP1;P1;durP2;ratioP2;P2;SDS_P1;SDS_P2;PMS_P1;PMS_P2;Temp;Humidity;BMP_temperature;BMP_pressure;BME280_temperature;BME280_humidity;BME280_pressure;Samples;Min_cycle;Max_cycle;Signal;HPM_P1;HPM_P2
2022/06/21 00:00:52;;;;;;;6.22;4.28;;;;;;;28.66;37.19;100697.44;5068532;28;20310;-80
2022/06/21 00:03:25;;;;;;;4.70;4.07;;;;;;;29.07;36.30;100774.47;5082845;28;20052;-79
2022/06/21 00:05:54;;;;;;;7.45;3.70;;;;;;;28.75;36.73;100712.31;5111318;28;20056;-79
2022/06/21 00:08:24;;;;;;;5.20;4.50;;;;;;;29.21;37.83;100774.09;5094676;28;20063;-79
2022/06/21 00:10:52;;;;;;;4.40;4.00;;;;;;;29.01;38.50;100752.75;5101490;28;20047;-80
2022/06/21 00:13:24;;;;;;;7.50;4.38;;;;;;;29.04;36.92;100758.56;5101235;28;20203;-80
2022/06/21 00:15:55;;;;;;;7.13;4.07;;;;;;;28.47;37.00;100687.91;5094911;28;20044;-80
2022/06/21 00:18:23;;;;;;;;;;;;;;;28.87;37.08;100764.09;5095716;28;20158;-80
2022/06/21 00:20:50;;;;;;;7.57;4.20;;;;;;;28.86;37.27;100761.59;5093549;28;19984;-80
2022/06/21 00:23:35;;;;;;;4.32;3.92;;;;;;;28.91;39.45;100758.94;5093052;28;20396;-80
2022/06/21 00:26:01;;;;;;;5.43;4.57;;;;;;;28.94;38.14;100756.53;5092609;28;20105;-80
2022/06/21 00:28:28;;;;;;;6.38;4.00;;;;;;;28.85;38.91;100743.56;5092599;28;20089;-81
2022/06/21 00:30:55;;;;;;;5.38;3.92;;;;;;;28.90;38.98;100752.63;5092736;28;20067;-81
2022/06/21 00:33:23;;;;;;;6.00;4.88;;;;;;;28.83;39.46;100745.72;5092894;28;20050;-80
2022/06/21 00:35:54;;;;;;;5.93;4.00;;;;;;;28.78;39.25;100738.28;5092693;28;20052;-80
2022/06/21 00:38:33;;;;;;;5.07;3.90;;;;;;;28.70;37.96;100739.56;5092356;28;20051;-80
2022/06/21 00:41:05;;;;;;;9.50;4.63;;;;;;;28.57;39.12;100725.44;5051927;28;20117;-80
2022/06/21 00:43:37;;;;;;;8.65;3.92;;;;;;;28.67;38.32;100736.53;5052074;28;20078;-78
2022/06/21 00:46:22;;;;;;;4.63;3.88;;;;;;;28.44;38.26;100710.22;5051861;28;20142;-79
2022/06/21 00:48:50;;;;;;;6.60;3.92;;;;;;;28.66;39.91;100743.88;5051884;28;20074;-79
2022/06/21 00:51:16;;;;;;;5.13;4.13;;;;;;;27.99;38.75;100632.94;5051720;28;20309;-79
2022/06/21 00:53:49;;;;;;;3.80;3.47;;;;;;;28.55;38.62;100726.53;5064840;28;20105;-81
2022/06/21 00:56:31;;;;;;;10.18;4.35;;;;;;;28.67;39.37;100742.81;5071678;28;20093;-80
2022/06/21 00:58:58;;;;;;;8.63;4.18;;;;;;;28.63;38.17;100736.19;5087971;28;20040;-80
2022/06/21 01:01:26;;;;;;;9.13;4.25;;;;;;;28.48;38.92;100725.06;5089576;28;20497;-79
2022/06/21 01:03:56;;;;;;;7.22;4.10;;;;;;;28.55;38.96;100739.38;5067425;28;20062;-80
2022/06/21 01:06:35;;;;;;;4.18;3.85;;;;;;;28.45;39.69;100741.91;5068626;28;20075;-79
2022/06/21 01:09:16;;;;;;;8.25;4.60;;;;;;;28.16;39.33;100692.94;5084603;28;20052;-80
2022/06/21 01:11:50;;;;;;;4.00;3.70;;;;;;;28.22;39.76;100702.00;5051165;28;20331;-81
2022/06/21 01:14:20;;;;;;;6.15;4.38;;;;;;;28.29;39.96;100738.16;5067856;28;20084;-80
2022/06/21 01:16:48;;;;;;;5.05;4.00;;;;;;;28.26;39.79;100739.47;5069048;28;20490;-80
2022/06/21 01:19:39;;;;;;;6.13;4.10;;;;;;;28.41;39.86;100759.88;5069077;28;20690;-79
2022/06/21 01:22:21;;;;;;;5.13;4.63;;;;;;;28.05;40.33;100740.25;5057130;28;20040;-80
2022/06/21 01:25:24;;;;;;;6.40;4.45;;;;;;;28.02;40.33;100740.75;5067495;28;20063;-80
2022/06/21 01:27:55;;;;;;;4.55;4.15;;;;;;;28.17;40.30;100771.00;5053855;28;20048;-81
2022/06/21 01:30:24;;;;;;;8.18;3.97;;;;;;;28.11;40.46;100761.09;5067464;28;20048;-80
2022/06/21 01:32:53;;;;;;;7.28;4.53;;;;;;;28.18;40.40;100774.53;5085525;28;20090;-78
2022/06/21 01:35:29;;;;;;;5.25;3.97;;;;;;;28.17;40.72;100776.44;5073443;28;20058;-79
2022/06/21 01:37:57;;;;;;;4.28;3.70;;;;;;;28.20;40.56;100796.97;5069020;28;20079;-80
2022/06/21 01:40:29;;;;;;;4.97;4.15;;;;;;;28.01;41.37;100782.72;5067239;28;20560;-80
2022/06/21 01:43:12;;;;;;;6.63;4.32;;;;;;;28.09;41.31;100788.63;5067124;28;20060;-81
2022/06/21 01:45:46;;;;;;;6.45;3.97;;;;;;;27.95;41.48;100773.66;5067160;28;20640;-80
2022/06/21 01:48:18;;;;;;;5.25;3.92;;;;;;;27.69;41.33;100729.53;5049394;28;20052;-80
2022/06/21 01:50:47;;;;;;;6.60;4.75;;;;;;;27.31;41.35;100680.34;5067507;28;20045;-79
2022/06/21 01:53:16;;;;;;;6.60;4.07;;;;;;;27.92;41.08;100776.88;5074490;28;20059;-79
2022/06/21 01:55:52;;;;;;;5.53;4.10;;;;;;;28.01;41.65;100804.56;5063666;28;20502;-82
2022/06/21 01:58:23;;;;;;;5.53;4.45;;;;;;;27.97;41.61;100797.97;5063649;28;20048;-80
2022/06/21 02:01:20;;;;;;;6.90;4.43;;;;;;;27.97;41.62;100803.44;5030713;28;20099;-82
2022/06/21 02:03:51;;;;;;;4.55;3.80;;;;;;;27.88;42.30;100803.81;5048594;28;20099;-80
2022/06/21 02:06:20;;;;;;;;;;;;;;;27.80;41.97;100793.28;5030930;28;20056;-79
2022/06/21 02:09:05;;;;;;;4.95;4.55;;;;;;;27.03;42.40;100677.38;5030981;28;19932;-79
2022/06/21 02:11:44;;;;;;;4.30;3.90;;;;;;;27.76;42.96;100794.03;5030971;28;20049;-81
2022/06/21 02:14:30;;;;;;;7.07;4.53;;;;;;;27.78;42.14;100802.78;5030900;28;20057;-80
2022/06/21 02:17:19;;;;;;;6.82;4.78;;;;;;;27.79;42.50;100799.78;5048146;28;20053;-79
2022/06/21 02:19:51;;;;;;;5.63;4.07;;;;;;;27.70;42.51;100787.66;5048342;28;20084;-80
2022/06/21 02:22:20;;;;;;;6.47;4.13;;;;;;;27.58;42.51;100765.09;5030452;28;20045;-79
2022/06/21 02:24:49;;;;;;;7.03;4.50;;;;;;;27.75;42.66;100785.00;5046671;28;20053;-79
2022/06/21 02:27:19;;;;;;;4.53;4.00;;;;;;;27.76;42.63;100794.84;5030205;28;20506;-80
2022/06/21 02:29:55;;;;;;;7.35;4.53;;;;;;;27.68;42.38;100779.72;5030589;28;20090;-80
2022/06/21 02:32:34;;;;;;;4.72;3.88;;;;;;;27.81;42.37;100792.19;5030132;28;20053;-80
2022/06/21 02:35:27;;;;;;;4.82;4.30;;;;;;;27.63;42.28;100776.91;5030117;28;20122;-81
2022/06/21 02:37:57;;;;;;;7.97;5.18;;;;;;;27.29;42.34;100721.50;5021821;28;20098;-80
2022/06/21 02:40:31;;;;;;;7.03;4.38;;;;;;;27.53;42.40;100770.44;5030137;28;20131;-80
2022/06/21 02:43:12;;;;;;;5.28;4.55;;;;;;;27.70;42.92;100788.47;5046264;28;20431;-81
2022/06/21 02:45:51;;;;;;;5.43;4.85;;;;;;;27.73;43.00;100810.88;5030069;28;20044;-80
2022/06/21 02:48:24;;;;;;;5.07;4.35;;;;;;;27.68;42.94;100811.63;5029862;28;20051;-79
2022/06/21 02:50:56;;;;;;;6.82;4.60;;;;;;;27.68;42.80;100806.16;5029690;28;20076;-81
2022/06/21 02:53:37;;;;;;;6.93;4.45;;;;;;;27.65;42.56;100801.22;5040295;28;20544;-80
2022/06/21 02:56:09;;;;;;;4.93;4.00;;;;;;;27.65;43.92;100803.94;5067475;28;20098;-79
2022/06/21 02:58:47;;;;;;;4.85;4.45;;;;;;;27.62;42.98;100797.06;5049948;28;20048;-79
2022/06/21 03:01:23;;;;;;;5.40;4.00;;;;;;;27.63;43.20;100806.06;5051307;28;20051;-81
2022/06/21 03:03:50;;;;;;;8.90;4.43;;;;;;;27.52;43.15;100774.22;5050045;28;20498;-80
2022/06/21 03:06:19;;;;;;;11.20;4.63;;;;;;;27.46;42.79;100787.78;5050522;28;20064;-80
2022/06/21 03:08:51;;;;;;;4.95;4.45;;;;;;;27.13;42.90;100741.31;5050304;28;20090;-80
2022/06/21 03:11:21;;;;;;;7.55;4.72;;;;;;;27.43;43.13;100784.69;5048937;28;20052;-79
2022/06/21 03:13:49;;;;;;;8.43;4.72;;;;;;;27.43;43.04;100788.25;5049300;28;20117;-80
2022/06/21 03:16:18;;;;;;;9.23;4.90;;;;;;;27.52;43.05;100796.03;5049444;28;20065;-79
2022/06/21 03:18:58;;;;;;;8.52;4.72;;;;;;;27.36;43.47;100771.22;5067366;28;20265;-81
2022/06/21 03:21:30;;;;;;;5.20;4.63;;;;;;;27.44;43.47;100795.34;5067029;28;20109;-81
2022/06/21 03:23:58;;;;;;;4.95;4.43;;;;;;;27.30;43.28;100776.81;5048713;28;20052;-79
2022/06/21 03:26:27;;;;;;;6.50;4.60;;;;;;;27.36;43.59;100794.94;5049177;28;20048;-80
2022/06/21 03:28:55;;;;;;;7.95;4.20;;;;;;;27.07;43.55;100743.94;5048995;28;20052;-78
2022/06/21 03:31:34;;;;;;;4.80;4.47;;;;;;;27.44;43.30;100811.72;5067096;28;20048;-79
2022/06/21 03:34:19;;;;;;;6.63;5.20;;;;;;;27.40;43.94;100799.63;5054692;28;20252;-79
2022/06/21 03:36:45;;;;;;;7.63;5.22;;;;;;;27.25;43.23;100774.81;5051656;28;20087;-78
2022/06/21 03:39:18;;;;;;;8.70;4.30;;;;;;;27.43;43.54;100803.78;5048914;28;20076;-79
2022/06/21 03:41:47;;;;;;;7.43;4.57;;;;;;;27.39;43.64;100808.06;5049303;28;20113;-78
2022/06/21 03:44:28;;;;;;;4.75;4.20;;;;;;;27.38;44.76;100812.72;5066319;28;20052;-80
2022/06/21 03:47:10;;;;;;;6.63;5.35;;;;;;;27.26;43.85;100792.84;5065308;28;20110;-79
2022/06/21 03:49:53;;;;;;;5.03;4.50;;;;;;;27.03;43.75;100761.81;5065125;28;20052;-79
2022/06/21 03:52:46;;;;;;;8.27;4.72;;;;;;;27.27;44.48;100822.56;5046829;28;20090;-80
2022/06/21 03:55:34;;;;;;;9.98;5.32;;;;;;;27.29;44.20;100822.31;5028718;28;20138;-80
2022/06/21 03:58:28;;;;;;;14.15;5.32;;;;;;;27.27;43.98;100824.47;5028882;28;20037;-80
2022/06/21 04:00:59;;;;;;;16.98;5.57;;;;;;;26.57;44.12;100714.56;5028864;28;20049;-80
2022/06/21 04:03:29;;;;;;;;;;;;;;;27.24;44.26;100833.13;5050721;28;20070;-79
2022/06/21 04:06:06;;;;;;;6.82;4.90;;;;;;;26.81;45.22;100752.66;5063040;28;19947;-80
2022/06/21 04:08:45;;;;;;;7.82;4.55;;;;;;;27.23;44.06;100812.38;5095380;28;20504;-80
2022/06/21 04:11:23;;;;;;;4.97;4.50;;;;;;;27.32;44.37;100840.91;5066432;28;20063;-80
2022/06/21 04:14:05;;;;;;;6.18;4.88;;;;;;;27.26;44.33;100825.53;5066955;28;20071;-80
2022/06/21 04:16:49;;;;;;;6.82;4.60;;;;;;;27.39;44.32;100841.59;5066327;28;20431;-79
2022/06/21 04:19:32;;;;;;;10.95;5.03;;;;;;;27.38;44.38;100837.25;5067448;28;20059;-78
2022/06/21 04:22:11;;;;;;;5.13;4.63;;;;;;;27.03;44.56;100785.53;5066568;28;20479;-79
2022/06/21 04:24:56;;;;;;;11.15;4.68;;;;;;;27.37;45.17;100835.56;5070441;28;20443;-81
2022/06/21 04:28:10;;;;;;;7.43;5.18;;;;;;;27.41;44.86;100836.75;5084925;28;20048;-79
2022/06/21 04:30:51;;;;;;;4.45;4.05;;;;;;;27.47;44.77;100837.66;5071610;28;20056;-81
2022/06/21 04:33:27;;;;;;;9.10;4.67;;;;;;;27.52;44.90;100834.22;5066540;28;20504;-80
2022/06/21 04:36:10;;;;;;;8.27;4.68;;;;;;;27.52;45.06;100839.66;5066878;28;20395;-77
2022/06/21 04:39:01;;;;;;;5.22;4.72;;;;;;;27.55;44.59;100836.44;5066780;28;20200;-79
2022/06/21 04:41:52;;;;;;;5.47;4.97;;;;;;;27.55;44.90;100822.81;5066915;28;20083;-80
2022/06/21 04:44:29;;;;;;;7.15;4.75;;;;;;;27.54;44.28;100821.16;5066597;28;20071;-78
2022/06/21 04:47:04;;;;;;;5.10;4.45;;;;;;;27.25;44.79;100772.09;5066767;28;20105;-79
2022/06/21 04:49:40;;;;;;;7.72;4.82;;;;;;;27.56;44.17;100810.84;5069281;28;20048;-81
2022/06/21 04:52:16;;;;;;;7.18;4.97;;;;;;;27.76;44.44;100837.66;5071941;28;20550;-81
2022/06/21 04:54:43;;;;;;;5.63;4.90;;;;;;;27.68;44.89;100838.88;5071281;28;20047;-81
2022/06/21 04:57:15;;;;;;;4.32;3.75;;;;;;;27.51;44.22;100810.75;5070850;28;20064;-79
2022/06/21 04:59:48;;;;;;;8.60;4.80;;;;;;;27.28;44.32;100771.59;5088462;28;20163;-80
2022/06/21 05:02:40;;;;;;;6.65;4.45;;;;;;;27.62;43.96;100820.75;5069279;28;20091;-81
2022/06/21 05:05:20;;;;;;;5.13;4.68;;;;;;;27.60;44.58;100815.56;5086515;28;20044;-80
2022/06/21 05:08:00;;;;;;;6.63;4.70;;;;;;;27.57;44.16;100812.50;5070504;28;20127;-79
2022/06/21 05:10:31;;;;;;;6.25;4.65;;;;;;;27.83;44.54;100863.75;5068595;28;20043;-80
2022/06/21 05:13:02;;;;;;;10.55;5.20;;;;;;;27.40;44.44;100787.91;5088034;28;20051;-80
2022/06/21 05:15:33;;;;;;;7.38;4.45;;;;;;;27.87;44.54;100854.00;5087991;28;20398;-80
2022/06/21 05:18:13;;;;;;;7.70;4.63;;;;;;;27.94;44.35;100853.84;5085785;28;20562;-81
2022/06/21 05:20:55;;;;;;;5.90;4.85;;;;;;;27.74;44.55;100821.53;5070619;28;20104;-79
2022/06/21 05:23:23;;;;;;;7.03;4.88;;;;;;;27.89;44.09;100840.09;5070463;28;20558;-80
2022/06/21 05:25:51;;;;;;;6.43;4.70;;;;;;;27.96;44.76;100829.03;5070985;28;20051;-80
2022/06/21 05:28:20;;;;;;;8.23;5.18;;;;;;;28.12;43.50;100856.34;5095008;28;20250;-79
2022/06/21 05:30:53;;;;;;;4.90;4.40;;;;;;;27.92;43.60;100821.34;5074386;28;20080;-81
2022/06/21 05:33:23;;;;;;;10.52;4.78;;;;;;;28.18;43.29;100864.63;5078930;28;20044;-79
2022/06/21 05:35:52;;;;;;;9.35;4.95;;;;;;;28.18;43.75;100870.91;5077480;28;20110;-79
2022/06/21 05:38:27;;;;;;;6.30;4.80;;;;;;;28.27;43.51;100868.59;5070642;28;20109;-79
2022/06/21 05:41:31;;;;;;;6.22;5.18;;;;;;;28.22;43.58;100855.69;5087634;28;20079;-79
2022/06/21 05:44:25;;;;;;;6.78;5.38;;;;;;;28.36;43.06;100877.22;5069747;28;20056;-81
2022/06/21 05:47:00;;;;;;;5.55;4.57;;;;;;;28.29;43.57;100888.28;5070502;28;20044;-80
2022/06/21 05:49:31;;;;;;;14.60;5.00;;;;;;;28.09;44.27;100834.19;5069902;28;20052;-80
2022/06/21 05:52:00;;;;;;;7.80;5.22;;;;;;;28.43;43.63;100886.06;5069239;28;20064;-81
2022/06/21 05:54:33;;;;;;;9.80;4.97;;;;;;;28.25;43.62;100855.19;5087381;28;20310;-79
2022/06/21 05:57:02;;;;;;;7.78;4.95;;;;;;;28.36;43.00;100869.03;5068835;28;20459;-79
2022/06/21 05:59:29;;;;;;;8.02;4.60;;;;;;;28.30;43.51;100862.63;5068642;28;20076;-80
2022/06/21 06:02:29;;;;;;;7.00;4.57;;;;;;;28.53;43.41;100902.63;5067328;28;20052;-81
2022/06/21 06:05:22;;;;;;;6.68;5.05;;;;;;;28.72;42.30;100909.50;5069313;28;20060;-79
2022/06/21 06:07:55;;;;;;;8.48;4.97;;;;;;;28.30;43.60;100832.59;5067661;28;20051;-79
2022/06/21 06:10:25;;;;;;;10.40;4.75;;;;;;;28.43;43.53;100836.91;5053072;28;20083;-79
2022/06/21 06:12:59;;;;;;;12.57;4.53;;;;;;;28.69;42.65;100884.56;5068550;28;20052;-79
2022/06/21 06:15:36;;;;;;;7.85;4.75;;;;;;;28.60;42.26;100875.16;5068709;28;20047;-80
2022/06/21 06:18:13;;;;;;;5.70;4.78;;;;;;;28.67;43.42;100884.03;5086275;28;20539;-80
2022/06/21 06:20:42;;;;;;;6.75;5.15;;;;;;;28.97;42.70;100916.41;5067692;28;20369;-79
2022/06/21 06:23:12;;;;;;;6.70;5.00;;;;;;;27.64;42.59;100694.00;5068389;28;20109;-80
2022/06/21 06:25:52;;;;;;;5.70;5.07;;;;;;;28.86;42.36;100874.47;5070112;28;20051;-79
2022/06/21 06:28:29;;;;;;;7.25;3.95;;;;;;;28.99;41.65;100903.34;5070665;28;20109;-80
2022/06/21 06:31:02;;;;;;;9.40;4.78;;;;;;;28.94;42.92;100884.13;5073370;28;20074;-78
2022/06/21 06:33:36;;;;;;;5.03;4.63;;;;;;;29.13;42.75;100909.31;5069068;28;20051;-78
2022/06/21 06:36:14;;;;;;;8.50;4.55;;;;;;;28.88;42.72;100835.94;5069253;28;20112;-80
2022/06/21 06:38:43;;;;;;;10.27;4.20;;;;;;;29.33;41.42;100912.28;5084081;28;20481;-79
2022/06/21 06:41:16;;;;;;;9.88;4.75;;;;;;;29.28;41.04;100895.00;5086610;28;20105;-79
2022/06/21 06:43:57;;;;;;;5.63;4.53;;;;;;;29.22;40.34;100874.13;5068723;28;20086;-80
2022/06/21 06:46:36;;;;;;;8.13;4.85;;;;;;;29.52;41.54;100901.03;5086660;28;20079;-80
2022/06/21 06:49:22;;;;;;;6.75;4.70;;;;;;;29.06;41.97;100822.03;5069809;28;20056;-80
2022/06/21 06:52:22;;;;;;;7.22;5.07;;;;;;;29.53;39.23;100911.72;5087889;28;20043;-81
2022/06/21 06:55:04;;;;;;;4.68;4.22;;;;;;;29.59;38.72;100918.91;5070795;28;20156;-79
2022/06/21 06:57:54;;;;;;;5.50;5.00;;;;;;;29.52;40.80;100907.34;5069874;28;20074;-79
2022/06/21 07:00:37;;;;;;;4.95;4.53;;;;;;;29.61;40.84;100916.75;5069945;28;20336;-79
2022/06/21 07:03:11;;;;;;;7.18;5.10;;;;;;;29.52;40.67;100879.97;5069306;28;20405;-78
2022/06/21 07:05:46;;;;;;;6.72;4.75;;;;;;;29.61;41.41;100889.41;5069665;28;20109;-77
2022/06/21 07:08:16;;;;;;;12.00;5.53;;;;;;;29.69;39.40;100923.72;5087347;28;20091;-79
2022/06/21 07:11:26;;;;;;;5.22;4.82;;;;;;;29.22;40.46;100849.53;5087869;28;20562;-80
2022/06/21 07:13:58;;;;;;;7.10;5.43;;;;;;;29.68;40.19;100916.56;5034267;28;20052;-78
2022/06/21 07:16:26;;;;;;;8.30;4.63;;;;;;;29.71;40.36;100904.28;5069843;28;20052;-80
2022/06/21 07:18:58;;;;;;;14.32;5.30;;;;;;;29.84;38.37;100917.56;5088194;28;20044;-81
2022/06/21 07:21:26;;;;;;;6.78;4.85;;;;;;;29.57;40.36;100869.09;5070213;28;20052;-81
2022/06/21 07:23:59;;;;;;;6.85;5.47;;;;;;;29.89;40.23;100892.19;5069193;28;20355;-79
2022/06/21 07:26:40;;;;;;;4.97;4.55;;;;;;;29.96;40.28;100917.44;5086344;28;20366;-80
2022/06/21 07:29:27;;;;;;;6.85;4.88;;;;;;;29.78;41.96;100877.53;5086712;28;20040;-80
2022/06/21 07:32:10;;;;;;;5.68;4.32;;;;;;;29.43;39.71;100824.09;5092698;28;20055;-79
2022/06/21 07:34:51;;;;;;;5.53;5.00;;;;;;;29.87;40.12;100876.00;5077102;28;20129;-79
2022/06/21 07:37:24;;;;;;;7.93;4.60;;;;;;;29.80;40.98;100839.81;5073889;28;20048;-78
2022/06/21 07:40:31;;;;;;;13.18;4.97;;;;;;;30.02;37.88;100881.63;5077549;28;20089;-79
2022/06/21 07:43:00;;;;;;;4.97;4.43;;;;;;;30.17;40.79;100897.38;5055909;28;20113;-77
2022/06/21 07:45:48;;;;;;;6.53;5.55;;;;;;;30.12;40.40;100888.28;5085538;28;20056;-79
2022/06/21 07:48:51;;;;;;;6.80;4.65;;;;;;;30.07;40.02;100890.97;5083568;28;20418;-78
2022/06/21 07:51:22;;;;;;;10.35;4.60;;;;;;;30.12;39.57;100894.56;5063933;28;20044;-80
2022/06/21 07:54:04;;;;;;;10.32;4.32;;;;;;;30.23;39.49;100890.84;5082613;28;20059;-81
2022/06/21 07:56:46;;;;;;;6.95;4.75;;;;;;;30.33;36.86;100892.88;5065758;28;20047;-81
2022/06/21 07:59:18;;;;;;;8.77;4.70;;;;;;;30.30;38.11;100896.16;5066273;28;20064;-79
2022/06/21 08:07:35;;;;;;;8.35;4.95;;;;;;;30.26;37.63;100884.06;5084823;28;20048;-80
2022/06/21 08:10:52;;;;;;;9.00;5.57;;;;;;;30.19;40.42;100861.50;5066805;28;20059;-79
2022/06/21 08:13:24;;;;;;;5.60;5.10;;;;;;;30.11;38.94;100853.78;5008867;28;20081;-79
2022/06/21 08:16:27;;;;;;;10.15;5.13;;;;;;;30.24;38.44;100884.31;4986729;28;20062;-80
2022/06/21 08:19:17;;;;;;;6.28;4.90;;;;;;;30.26;40.32;100873.09;5047250;28;20048;-78
2022/06/21 08:21:51;;;;;;;5.60;5.03;;;;;;;30.36;39.74;100889.59;5046821;28;20125;-78
2022/06/21 08:24:28;;;;;;;6.43;5.07;;;;;;;30.54;39.20;100890.31;5067268;28;20048;-79
2022/06/21 08:27:35;;;;;;;6.55;5.25;;;;;;;30.56;39.17;100883.50;5050345;28;20470;-77
2022/06/21 08:30:09;;;;;;;8.27;5.20;;;;;;;30.64;36.44;100874.75;5036123;28;20048;-78
2022/06/21 08:32:47;;;;;;;5.32;4.93;;;;;;;30.62;39.60;100873.38;5071399;28;20048;-78
2022/06/21 08:35:22;;;;;;;6.97;4.68;;;;;;;30.55;39.77;100867.31;5104711;28;20044;-80
2022/06/21 08:37:58;;;;;;;5.22;4.72;;;;;;;30.61;39.37;100855.28;5074076;28;20244;-78
2022/06/21 08:40:43;;;;;;;10.85;5.80;;;;;;;30.38;39.12;100827.19;5072658;28;20069;-80
2022/06/21 08:43:10;;;;;;;5.35;4.90;;;;;;;30.61;39.54;100856.13;5071175;28;20486;-81
2022/06/21 08:46:11;;;;;;;6.93;5.22;;;;;;;30.22;40.01;100800.75;5070881;28;20047;-79
2022/06/21 08:48:59;;;;;;;9.25;5.03;;;;;;;30.51;40.38;100857.94;5069880;28;20562;-79
2022/06/21 08:51:38;;;;;;;6.50;4.97;;;;;;;30.64;39.35;100846.53;5086863;28;20051;-80
2022/06/21 08:54:25;;;;;;;6.50;4.30;;;;;;;30.64;38.71;100863.00;5066915;28;20053;-80
2022/06/21 08:57:04;;;;;;;8.00;4.90;;;;;;;30.93;40.28;100870.88;5070023;28;20071;-80
2022/06/21 08:59:45;;;;;;;9.32;4.90;;;;;;;30.82;40.57;100870.75;5088172;28;20052;-78
2022/06/21 09:02:56;;;;;;;7.70;5.20;;;;;;;30.55;41.20;100870.03;5087902;28;20117;-79
2022/06/21 09:05:41;;;;;;;;;;;;;;;30.41;39.72;100865.00;5054995;28;20067;-79
2022/06/21 09:08:18;;;;;;;7.22;4.65;;;;;;;30.64;40.46;100863.00;5070216;28;20442;-79
2022/06/21 09:11:22;;;;;;;5.45;4.55;;;;;;;30.88;40.69;100847.81;5072188;28;20051;-79
2022/06/21 09:14:10;;;;;;;5.55;4.18;;;;;;;30.06;37.93;100747.00;5070169;28;20091;-79
2022/06/21 09:16:59;;;;;;;6.70;4.80;;;;;;;30.37;40.38;100850.19;5069771;28;20291;-79
2022/06/21 09:19:42;;;;;;;5.07;4.47;;;;;;;30.37;39.18;100855.69;5069913;28;20079;-79
2022/06/21 09:22:56;;;;;;;5.85;4.57;;;;;;;30.53;41.46;100850.28;5088660;28;20076;-80
2022/06/21 09:25:36;;;;;;;6.80;4.88;;;;;;;30.56;39.45;100844.28;5065582;28;20268;-80
2022/06/21 09:28:10;;;;;;;5.72;4.38;;;;;;;30.59;41.06;100806.25;5071062;28;20513;-80
2022/06/21 09:30:46;;;;;;;7.55;5.50;;;;;;;30.57;40.77;100807.59;5074220;28;20048;-80
2022/06/21 09:33:21;;;;;;;8.75;5.13;;;;;;;30.99;40.49;100856.91;5075477;28;20131;-80
2022/06/21 09:36:27;;;;;;;5.47;4.97;;;;;;;30.71;40.77;100858.09;5073242;28;20052;-79
2022/06/21 09:39:34;;;;;;;5.63;5.13;;;;;;;30.42;40.11;100852.16;5072534;28;20402;-79
2022/06/21 09:42:32;;;;;;;6.95;5.35;;;;;;;30.67;40.32;100857.78;5088439;28;20055;-78
2022/06/21 09:45:35;;;;;;;6.28;4.80;;;;;;;30.73;41.22;100852.34;5087271;28;20044;-78
2022/06/21 09:48:24;;;;;;;6.28;5.13;;;;;;;30.76;41.13;100836.22;5069890;28;20044;-79
2022/06/21 09:51:25;;;;;;;5.30;4.90;;;;;;;30.44;40.08;100809.72;5071394;28;20509;-79
2022/06/21 09:54:17;;;;;;;4.78;4.38;;;;;;;30.70;39.18;100834.50;5081285;28;20097;-78
2022/06/21 09:56:57;;;;;;;4.90;4.40;;;;;;;30.29;41.04;100729.38;5086278;28;20642;-79
2022/06/21 09:59:34;;;;;;;6.10;4.75;;;;;;;30.30;39.44;100761.97;5087010;28;20129;-80
2022/06/21 10:02:17;;;;;;;5.03;4.63;;;;;;;31.05;40.79;100830.34;5067397;28;20063;-78
2022/06/21 10:05:09;;;;;;;8.77;5.65;;;;;;;30.64;38.75;100835.59;5067105;28;20056;-79
2022/06/21 10:07:51;;;;;;;8.57;5.10;;;;;;;30.72;39.30;100820.56;5070552;28;20106;-78
2022/06/21 10:10:26;;;;;;;5.22;4.72;;;;;;;31.26;39.46;100825.75;5088281;28;20052;-79
2022/06/21 10:13:14;;;;;;;4.80;4.32;;;;;;;31.32;39.84;100829.34;5071254;28;20119;-79
2022/06/21 10:16:28;;;;;;;4.88;4.35;;;;;;;31.06;39.78;100826.50;5089021;28;20056;-77
2022/06/21 10:18:58;;;;;;;9.45;5.15;;;;;;;31.22;40.23;100813.69;5071210;28;20117;-79
2022/06/21 10:21:47;;;;;;;4.65;4.25;;;;;;;31.50;39.77;100815.97;5089014;28;20460;-77
2022/06/21 10:24:31;;;;;;;13.73;5.00;;;;;;;31.48;39.47;100806.38;5070269;28;20093;-79
2022/06/21 10:27:29;;;;;;;4.57;4.15;;;;;;;31.23;39.85;100824.38;5069754;28;20047;-80
2022/06/21 10:30:22;;;;;;;5.78;5.20;;;;;;;31.22;39.53;100820.00;5070281;28;20052;-80
2022/06/21 10:33:16;;;;;;;5.78;5.18;;;;;;;31.19;39.67;100809.56;5069870;28;20048;-79
2022/06/21 10:35:54;;;;;;;7.88;5.32;;;;;;;31.47;39.14;100804.72;5086703;28;20052;-78
2022/06/21 10:38:49;;;;;;;6.18;4.80;;;;;;;31.61;39.46;100800.38;5071965;28;20051;-79
2022/06/21 10:41:39;;;;;;;7.20;4.25;;;;;;;31.99;38.83;100794.66;5067859;28;20543;-81
2022/06/21 10:44:28;;;;;;;6.65;4.38;;;;;;;31.30;38.79;100728.16;5052782;28;20098;-81
2022/06/21 10:47:07;;;;;;;7.15;4.65;;;;;;;31.68;38.63;100792.69;5057333;28;20099;-79
2022/06/21 10:50:02;;;;;;;9.07;4.68;;;;;;;30.74;38.39;100605.47;5051918;28;20060;-78
2022/06/21 10:53:12;;;;;;;5.03;4.53;;;;;;;31.65;38.46;100774.03;5056978;28;20048;-78
2022/06/21 10:58:55;;;;;;;5.00;4.22;;;;;;;31.39;39.19;100701.00;5068388;28;20105;-78
2022/06/21 11:01:55;;;;;;;6.72;4.78;;;;;;;31.87;38.80;100764.69;5050120;28;20059;-78
2022/06/21 11:04:34;;;;;;;5.05;4.32;;;;;;;31.90;38.72;100755.94;5056203;28;20135;-80
2022/06/21 11:07:16;;;;;;;6.00;4.55;;;;;;;31.55;37.79;100661.53;5070032;28;20079;-79
2022/06/21 11:09:52;;;;;;;8.23;4.85;;;;;;;31.96;38.94;100765.81;5088168;28;20101;-79
2022/06/21 11:15:16;;;;;;;5.22;4.55;;;;;;;31.89;39.77;100746.03;5088640;28;20044;-79
2022/06/21 11:17:46;;;;;;;7.38;4.88;;;;;;;32.09;39.23;100754.28;5069853;28;20059;-80
2022/06/21 11:20:15;;;;;;;5.47;4.20;;;;;;;32.24;38.62;100752.63;5069668;28;20052;-80
2022/06/21 11:22:52;;;;;;;10.20;4.32;;;;;;;32.08;38.64;100749.06;5070053;28;20443;-81
2022/06/21 11:25:19;;;;;;;6.85;5.13;;;;;;;32.03;38.29;100757.31;5087028;28;20561;-81
2022/06/21 11:28:05;;;;;;;8.48;4.55;;;;;;;32.17;39.21;100719.13;5071155;28;20062;-79
2022/06/21 11:30:53;;;;;;;7.78;4.72;;;;;;;32.53;38.00;100750.13;5091014;28;20051;-80
2022/06/21 11:33:49;;;;;;;7.20;5.05;;;;;;;32.40;37.96;100723.19;5072292;28;20105;-80
2022/06/21 11:36:35;;;;;;;5.50;4.95;;;;;;;32.61;38.72;100737.72;5070229;28;20516;-80
2022/06/21 11:39:11;;;;;;;6.03;4.65;;;;;;;32.15;37.35;100654.31;5070937;28;20068;-83
2022/06/21 11:42:05;;;;;;;9.45;5.45;;;;;;;32.37;37.18;100677.88;5086838;28;20553;-80
2022/06/21 11:45:03;;;;;;;5.72;4.55;;;;;;;32.46;38.27;100730.31;5087772;28;20066;-78
2022/06/21 11:48:01;;;;;;;6.55;4.95;;;;;;;32.35;38.24;100724.84;5090030;28;20505;-81
2022/06/21 11:50:48;;;;;;;6.63;5.20;;;;;;;32.44;37.96;100730.59;5087878;28;20059;-80
2022/06/21 11:53:52;;;;;;;8.93;5.53;;;;;;;32.50;37.72;100724.03;5082510;28;20048;-80
2022/06/21 11:56:57;;;;;;;6.38;5.20;;;;;;;32.39;38.20;100725.13;5072105;28;20066;-81
2022/06/21 11:59:41;;;;;;;7.45;4.53;;;;;;;32.01;38.53;100672.47;5078467;28;20540;-81
2022/06/21 12:02:18;;;;;;;8.20;5.28;;;;;;;32.51;37.99;100697.38;5083937;28;20059;-80
2022/06/21 12:04:45;;;;;;;10.30;5.28;;;;;;;32.61;38.25;100729.47;5075968;28;20478;-78
2022/06/21 12:07:25;;;;;;;9.48;5.38;;;;;;;31.81;38.16;100590.97;5092247;28;20085;-80
2022/06/21 12:09:57;;;;;;;9.30;5.25;;;;;;;32.51;38.45;100722.09;5095656;28;20052;-80
2022/06/21 12:12:53;;;;;;;8.23;5.63;;;;;;;32.59;38.47;100717.94;5093384;28;20367;-80
2022/06/21 12:15:55;;;;;;;9.95;5.32;;;;;;;32.53;38.75;100673.19;5070447;28;20055;-79
2022/06/21 12:18:32;;;;;;;8.43;5.32;;;;;;;32.92;38.11;100700.72;5070072;28;20064;-77
2022/06/21 12:21:10;;;;;;;7.88;4.95;;;;;;;32.95;37.00;100694.66;5067457;28;20048;-79
2022/06/21 12:23:52;;;;;;;7.88;5.32;;;;;;;32.88;37.71;100677.66;5068134;28;20122;-78
2022/06/21 12:26:23;;;;;;;8.60;5.57;;;;;;;33.18;37.84;100693.19;5067848;28;20060;-79
2022/06/21 12:28:52;;;;;;;8.77;5.45;;;;;;;33.19;37.95;100672.00;5067872;28;20088;-79
2022/06/21 12:31:50;;;;;;;8.43;5.60;;;;;;;33.47;37.87;100680.56;5079865;28;20101;-79
2022/06/21 12:34:36;;;;;;;11.30;6.35;;;;;;;33.03;36.70;100634.66;5064813;28;20059;-79